Wetterdaten: Woche 21.02.22 - 27.02.22 (KW8)
Datum Zeit Temp. Aussen Temp. o. S. Temp +5cm Feuchte Auss Luftdruck Regen Sonnenschein Regendauer Solar Windben Empfang
21.02.2022 00:00 5,6 C 4,9 C 2,3 C 94 % 996,6 hPa 0,6 l/m 0,00 h 0,67 h 0 W/m 25,7 km/h (4 Bft) 97,41 %
21.02.2022 01:00 6,0 C 5,3 C 2,6 C 92 % 997,8 hPa 0,6 l/m 0,00 h 0,30 h 0 W/m 31,1 km/h (5 Bft) 97,70 %
21.02.2022 02:00 5,4 C 4,7 C 1,7 C 90 % 998,7 hPa 0,0 l/m 0,00 h 0,03 h 0 W/m 28,4 km/h (4 Bft) 99,15 %
21.02.2022 03:00 5,2 C 4,3 C 1,2 C 84 % 999,3 hPa 0,0 l/m 0,00 h 0,33 h 0 W/m 27,8 km/h (4 Bft) 97,01 %
21.02.2022 04:00 4,2 C 3,5 C 0,6 C 87 % 999,8 hPa 0,2 l/m 0,00 h 0,80 h 0 W/m 22,9 km/h (4 Bft) 96,77 %
21.02.2022 05:00 3,9 C 3,2 C 0,3 C 86 % 1000,3 hPa 0,2 l/m 0,00 h 0,57 h 0 W/m 25,8 km/h (4 Bft) 98,87 %
21.02.2022 06:00 3,5 C 2,7 C -0,2 C 88 % 1000,6 hPa 0,2 l/m 0,00 h 0,57 h 0 W/m 27,7 km/h (4 Bft) 97,35 %
21.02.2022 07:00 2,3 C 1,7 C -0,8 C 92 % 1000,7 hPa 0,0 l/m 0,00 h 0,20 h 9 W/m 22,1 km/h (4 Bft) 96,09 %
21.02.2022 08:00 3,4 C 3,1 C 0,2 C 89 % 1000,7 hPa 0,0 l/m 0,00 h 0,00 h 38 W/m 23,4 km/h (4 Bft) 96,60 %
21.02.2022 09:00 4,8 C 5,3 C 1,7 C 82 % 1000,6 hPa 0,0 l/m 0,37 h 0,00 h 124 W/m 29,8 km/h (5 Bft) 99,36 %
21.02.2022 10:00 5,7 C 6,1 C 2,4 C 78 % 1000,1 hPa 0,2 l/m 0,23 h 0,17 h 156 W/m 37,0 km/h (5 Bft) 95,35 %
21.02.2022 11:00 5,1 C 4,3 C 1,0 C 85 % 999,4 hPa 0,4 l/m 0,00 h 0,93 h 80 W/m 38,1 km/h (5 Bft) 97,65 %
21.02.2022 12:00 4,8 C 3,8 C 0,9 C 91 % 998,6 hPa 1,0 l/m 0,00 h 1,00 h 60 W/m 40,7 km/h (6 Bft) 97,04 %
21.02.2022 13:00 5,2 C 4,4 C 1,5 C 93 % 998,1 hPa 0,6 l/m 0,00 h 0,93 h 82 W/m 32,8 km/h (5 Bft) 96,94 %
21.02.2022 14:00 5,7 C 4,7 C 2,3 C 95 % 998,0 hPa 1,0 l/m 0,00 h 0,93 h 66 W/m 27,8 km/h (4 Bft) 97,15 %
21.02.2022 15:00 6,5 C 5,8 C 3,1 C 94 % 999,3 hPa 0,8 l/m 0,00 h 0,80 h 63 W/m 33,8 km/h (5 Bft) 99,09 %
21.02.2022 16:00 6,9 C 6,5 C 2,9 C 90 % 1001,9 hPa 0,0 l/m 0,03 h 0,00 h 56 W/m 33,9 km/h (5 Bft) 95,81 %
21.02.2022 17:00 7,0 C 6,4 C 2,7 C 85 % 1005,0 hPa 0,0 l/m 0,00 h 0,00 h 20 W/m 33,6 km/h (5 Bft) 97,88 %
21.02.2022 18:00 6,6 C 5,9 C 3,1 C 85 % 1007,3 hPa 0,0 l/m 0,00 h 0,00 h 0 W/m 23,3 km/h (4 Bft) 99,15 %
21.02.2022 19:00 6,5 C 5,9 C 3,2 C 88 % 1008,8 hPa 0,0 l/m 0,00 h 0,10 h 0 W/m 19,2 km/h (3 Bft) 95,11 %
21.02.2022 20:00 6,7 C 6,1 C 3,2 C 89 % 1010,2 hPa 0,2 l/m 0,00 h 0,87 h 0 W/m 23,8 km/h (4 Bft) 99,69 %
21.02.2022 21:00 6,8 C 6,1 C 3,3 C 88 % 1012,0 hPa 0,0 l/m 0,00 h 0,03 h 0 W/m 23,0 km/h (4 Bft) 97,58 %
21.02.2022 22:00 6,7 C 6,1 C 3,3 C 87 % 1013,8 hPa 0,0 l/m 0,00 h 0,00 h 0 W/m 21,0 km/h (4 Bft) 96,87 %
21.02.2022 23:00 6,3 C 5,7 C 2,9 C 87 % 1015,2 hPa 0,0 l/m 0,00 h 0,00 h 0 W/m 17,9 km/h (3 Bft) 98,29 %
22.02.2022 00:00 5,8 C 5,1 C 2,6 C 89 % 1016,3 hPa 0,0 l/m 0,00 h 0,00 h 0 W/m 16,2 km/h (3 Bft) 97,81 %
22.02.2022 01:00 5,6 C 5,0 C 2,2 C 89 % 1017,2 hPa 0,0 l/m 0,00 h 0,00 h 0 W/m 17,7 km/h (3 Bft) 95,03 %
22.02.2022 02:00 5,3 C 4,5 C 2,0 C 90 % 1017,8 hPa 0,0 l/m 0,00 h 0,00 h 0 W/m 15,5 km/h (3 Bft) 97,02 %
22.02.2022 03:00 5,0 C 4,2 C 1,8 C 91 % 1018,4 hPa 0,0 l/m 0,00 h 0,00 h 0 W/m 12,4 km/h (3 Bft) 96,14 %
22.02.2022 04:00 4,3 C 3,6 C 1,2 C 92 % 1018,6 hPa 0,0 l/m 0,00 h 0,00 h 0 W/m 10,3 km/h (2 Bft) 97,51 %
22.02.2022 05:00 4,1 C 3,3 C 1,1 C 93 % 1019,0 hPa 0,0 l/m 0,00 h 0,00 h 0 W/m 9,9 km/h (2 Bft) 96,87 %
22.02.2022 06:00 3,7 C 2,8 C 0,7 C 95 % 1019,3 hPa 0,0 l/m 0,00 h 0,00 h 0 W/m 7,2 km/h (2 Bft) 97,20 %
22.02.2022 07:00 3,4 C 2,5 C 0,6 C 95 % 1019,8 hPa 0,0 l/m 0,00 h 0,00 h 9 W/m 7,5 km/h (2 Bft) 95,87 %
22.02.2022 08:00 3,6 C 3,3 C 1,1 C 96 % 1020,0 hPa 0,0 l/m 0,07 h 0,00 h 51 W/m 9,9 km/h (2 Bft) 96,14 %
22.02.2022 09:00 4,8 C 5,1 C 2,6 C 95 % 1019,8 hPa 0,0 l/m 0,30 h 0,00 h 117 W/m 18,9 km/h (3 Bft) 98,86 %
22.02.2022 10:00 6,1 C 6,5 C 4,1 C 92 % 1019,3 hPa 0,0 l/m 0,33 h 0,00 h 175 W/m 18,6 km/h (3 Bft) 95,44 %
22.02.2022 11:00 7,5 C 7,5 C 5,0 C 87 % 1018,8 hPa 0,0 l/m 0,10 h 0,00 h 147 W/m 22,6 km/h (4 Bft) 98,65 %
22.02.2022 12:00 8,1 C 7,9 C 5,0 C 84 % 1018,1 hPa 0,0 l/m 0,00 h 0,03 h 136 W/m 28,1 km/h (4 Bft) 98,83 %
22.02.2022 13:00 8,0 C 7,4 C 4,4 C 88 % 1017,4 hPa 0,0 l/m 0,00 h 0,67 h 92 W/m 25,1 km/h (4 Bft) 94,66 %
22.02.2022 14:00 7,9 C 7,4 C 4,6 C 94 % 1016,4 hPa 0,0 l/m 0,00 h 0,27 h 62 W/m 25,6 km/h (4 Bft) 99,12 %
22.02.2022 15:00 8,8 C 8,4 C 5,7 C 93 % 1015,8 hPa 0,0 l/m 0,00 h 0,00 h 55 W/m 24,3 km/h (4 Bft) 97,72 %
22.02.2022 16:00 9,4 C 9,0 C 6,2 C 91 % 1014,9 hPa 0,0 l/m 0,00 h 0,20 h 55 W/m 31,4 km/h (5 Bft) 96,51 %
22.02.2022 17:00 9,7 C 9,0 C 6,4 C 90 % 1014,5 hPa 0,2 l/m 0,00 h 0,33 h 15 W/m 28,2 km/h (4 Bft) 98,46 %
22.02.2022 18:00 9,6 C 8,6 C 5,6 C 92 % 1014,5 hPa 0,2 l/m 0,00 h 0,83 h 0 W/m 24,4 km/h (4 Bft) 97,14 %
22.02.2022 19:00 9,5 C 8,4 C 5,7 C 95 % 1014,9 hPa 2,0 l/m 0,00 h 0,87 h 0 W/m 20,6 km/h (4 Bft) 96,07 %
22.02.2022 20:00 8,2 C 7,0 C 4,4 C 93 % 1016,7 hPa 0,6 l/m 0,00 h 0,53 h 0 W/m 24,7 km/h (4 Bft) 99,07 %
22.02.2022 21:00 7,5 C 6,7 C 3,6 C 90 % 1018,3 hPa 0,0 l/m 0,00 h 0,00 h 0 W/m 14,3 km/h (3 Bft) 97,22 %
22.02.2022 22:00 6,9 C 5,6 C 2,9 C 90 % 1019,6 hPa 0,0 l/m 0,00 h 0,00 h 0 W/m 5,7 km/h (1 Bft) 96,44 %
22.02.2022 23:00 6,3 C 5,3 C 2,8 C 93 % 1020,7 hPa 0,0 l/m 0,00 h 0,00 h 0 W/m 6,8 km/h (2 Bft) 98,81 %
23.02.2022 00:00 6,2 C 5,6 C 2,8 C 93 % 1021,7 hPa 0,0 l/m 0,00 h 0,00 h 0 W/m 10,8 km/h (2 Bft) 97,99 %
23.02.2022 01:00 5,9 C 5,1 C 2,4 C 92 % 1022,6 hPa 0,0 l/m 0,00 h 0,00 h 0 W/m 10,3 km/h (2 Bft) 97,59 %
23.02.2022 02:00 5,3 C 4,4 C 1,8 C 92 % 1023,3 hPa 0,0 l/m 0,00 h 0,00 h 0 W/m 6,4 km/h (2 Bft) 96,79 %
23.02.2022 03:00 4,7 C 3,6 C 1,4 C 92 % 1023,7 hPa 0,0 l/m 0,00 h 0,00 h 0 W/m 4,7 km/h (1 Bft) 97,22 %
23.02.2022 04:00 4,2 C 3,3 C 1,1 C 93 % 1024,3 hPa 0,2 l/m 0,00 h 0,00 h 0 W/m 4,8 km/h (1 Bft) 97,24 %
23.02.2022 05:00 3,8 C 2,8 C 1,0 C 93 % 1025,1 hPa 0,0 l/m 0,00 h 0,00 h 0 W/m 4,9 km/h (1 Bft) 95,18 %
23.02.2022 06:00 3,2 C 2,1 C 0,4 C 94 % 1025,7 hPa 0,0 l/m 0,00 h 0,00 h 0 W/m 2,8 km/h (1 Bft) 98,02 %
23.02.2022 07:00 2,9 C 1,9 C 0,2 C 94 % 1026,1 hPa 0,0 l/m 0,00 h 0,00 h 9 W/m 4,6 km/h (1 Bft) 98,45 %
23.02.2022 08:00 3,4 C 3,1 C 1,0 C 95 % 1026,5 hPa 0,0 l/m 0,10 h 0,00 h 38 W/m 9,6 km/h (2 Bft) 95,92 %
23.02.2022 09:00 5,3 C 6,8 C 2,7 C 94 % 1027,0 hPa 0,0 l/m 0,37 h 0,00 h 123 W/m 14,9 km/h (3 Bft) 98,51 %
23.02.2022 10:00 7,7 C 13,5 C 5,3 C 87 % 1027,2 hPa 0,0 l/m 0,87 h 0,00 h 320 W/m 16,1 km/h (3 Bft) 99,08 %
23.02.2022 11:00 9,8 C 17,3 C 11,6 C 79 % 1027,0 hPa 0,0 l/m 1,00 h 0,00 h 457 W/m 20,4 km/h (4 Bft) 96,91 %
23.02.2022 12:00 10,6 C 13,6 C 9,2 C 72 % 1026,6 hPa 0,0 l/m 0,57 h 0,00 h 298 W/m 21,2 km/h (4 Bft) 99,37 %
23.02.2022 13:00 12,0 C 20,3 C 8,2 C 65 % 1025,9 hPa 0,0 l/m 1,00 h 0,00 h 535 W/m 20,9 km/h (4 Bft) 97,51 %
23.02.2022 14:00 12,1 C 16,9 C 7,8 C 62 % 1024,9 hPa 0,0 l/m 1,00 h 0,00 h 470 W/m 22,1 km/h (4 Bft) 96,34 %
23.02.2022 15:00 11,6 C 13,6 C 7,4 C 66 % 1024,1 hPa 0,0 l/m 0,73 h 0,00 h 264 W/m 22,1 km/h (4 Bft) 96,17 %
23.02.2022 16:00 11,3 C 10,9 C 6,9 C 65 % 1023,2 hPa 0,0 l/m 0,57 h 0,00 h 139 W/m 21,6 km/h (4 Bft) 97,20 %
23.02.2022 17:00 10,6 C 9,8 C 6,0 C 67 % 1022,3 hPa 0,0 l/m 0,00 h 0,00 h 26 W/m 13,8 km/h (3 Bft) 97,77 %
23.02.2022 18:00 9,4 C 8,0 C 4,3 C 72 % 1021,9 hPa 0,0 l/m 0,00 h 0,00 h 3 W/m 6,5 km/h (2 Bft) 96,74 %
23.02.2022 19:00 8,6 C 7,4 C 4,0 C 74 % 1021,5 hPa 0,0 l/m 0,00 h 0,00 h 0 W/m 7,9 km/h (2 Bft) 95,98 %
23.02.2022 20:00 8,4 C 7,8 C 4,3 C 73 % 1021,1 hPa 0,0 l/m 0,00 h 0,00 h 0 W/m 9,2 km/h (2 Bft) 98,54 %
23.02.2022 21:00 8,8 C 8,3 C 4,4 C 73 % 1020,3 hPa 0,0 l/m 0,00 h 0,00 h 0 W/m 10,7 km/h (2 Bft) 98,04 %
23.02.2022 22:00 8,7 C 7,9 C 4,4 C 74 % 1020,0 hPa 0,0 l/m 0,00 h 0,00 h 0 W/m 11,9 km/h (2 Bft) 95,93 %
23.02.2022 23:00 8,4 C 7,7 C 4,2 C 76 % 1019,4 hPa 0,0 l/m 0,00 h 0,00 h 0 W/m 11,4 km/h (2 Bft) 97,96 %
24.02.2022 00:00 8,2 C 7,2 C 3,9 C 79 % 1018,6 hPa 0,0 l/m 0,00 h 0,00 h 0 W/m 13,2 km/h (3 Bft) 96,82 %
24.02.2022 01:00 8,1 C 7,2 C 3,9 C 81 % 1017,8 hPa 0,0 l/m 0,00 h 0,00 h 0 W/m 13,3 km/h (3 Bft) 96,33 %
24.02.2022 02:00 8,0 C 7,2 C 3,9 C 81 % 1017,2 hPa 0,0 l/m 0,00 h 0,00 h 0 W/m 10,1 km/h (2 Bft) 99,05 %
24.02.2022 03:00 7,8 C 7,2 C 3,9 C 82 % 1016,4 hPa 0,0 l/m 0,00 h 0,00 h 0 W/m 12,8 km/h (3 Bft) 97,51 %
24.02.2022 04:00 7,7 C 7,2 C 3,8 C 82 % 1015,5 hPa 0,0 l/m 0,00 h 0,00 h 0 W/m 11,6 km/h (2 Bft) 97,12 %
24.02.2022 05:00 7,7 C 6,9 C 3,4 C 83 % 1014,8 hPa 0,0 l/m 0,00 h 0,00 h 0 W/m 7,5 km/h (2 Bft) 96,58 %
24.02.2022 06:00 7,4 C 6,7 C 3,3 C 84 % 1013,7 hPa 0,0 l/m 0,00 h 0,00 h 0 W/m 12,2 km/h (2 Bft) 99,02 %
24.02.2022 07:00 7,8 C 7,1 C 3,4 C 80 % 1013,3 hPa 0,0 l/m 0,00 h 0,00 h 10 W/m 19,0 km/h (3 Bft) 96,30 %
24.02.2022 08:00 7,8 C 7,2 C 3,9 C 80 % 1012,8 hPa 0,0 l/m 0,00 h 0,00 h 48 W/m 20,3 km/h (4 Bft) 96,81 %
24.02.2022 09:00 8,2 C 8,0 C 4,4 C 79 % 1012,2 hPa 0,0 l/m 0,00 h 0,00 h 93 W/m 16,8 km/h (3 Bft) 98,16 %
24.02.2022 10:00 9,2 C 9,8 C 5,8 C 78 % 1011,2 hPa 0,0 l/m 0,70 h 0,00 h 215 W/m 27,8 km/h (4 Bft) 97,06 %
24.02.2022 11:00 9,9 C 10,5 C 6,8 C 77 % 1010,1 hPa 0,0 l/m 0,50 h 0,00 h 233 W/m 28,1 km/h (4 Bft) 96,58 %
24.02.2022 12:00 10,4 C 11,3 C 7,0 C 73 % 1008,9 hPa 0,0 l/m 0,30 h 0,00 h 254 W/m 32,1 km/h (5 Bft) 97,70 %
24.02.2022 13:00 10,9 C 12,1 C 7,1 C 69 % 1007,9 hPa 0,0 l/m 0,40 h 0,00 h 253 W/m 38,5 km/h (5 Bft) 97,58 %
24.02.2022 14:00 11,6 C 13,8 C 7,3 C 67 % 1006,7 hPa 0,0 l/m 0,83 h 0,00 h 389 W/m 43,0 km/h (6 Bft) 97,72 %
24.02.2022 15:00 11,0 C 10,4 C 6,6 C 69 % 1006,0 hPa 0,6 l/m 0,07 h 0,17 h 75 W/m 38,2 km/h (5 Bft) 97,02 %
24.02.2022 16:00 5,6 C 4,9 C 1,1 C 89 % 1008,6 hPa 1,0 l/m 0,00 h 0,97 h 23 W/m 30,5 km/h (5 Bft) 97,44 %
24.02.2022 17:00 5,2 C 4,4 C 1,1 C 92 % 1009,8 hPa 0,0 l/m 0,00 h 0,10 h 14 W/m 17,4 km/h (3 Bft) 96,92 %
24.02.2022 18:00 4,9 C 4,1 C 1,1 C 91 % 1011,0 hPa 0,4 l/m 0,00 h 0,20 h 3 W/m 15,5 km/h (3 Bft) 98,24 %
24.02.2022 19:00 4,6 C 3,8 C 0,6 C 93 % 1012,0 hPa 0,4 l/m 0,00 h 0,13 h 0 W/m 12,3 km/h (3 Bft) 95,73 %
24.02.2022 20:00 4,1 C 3,4 C 0,1 C 92 % 1012,8 hPa 0,2 l/m 0,00 h 0,70 h 0 W/m 15,0 km/h (3 Bft) 98,93 %
24.02.2022 21:00 3,7 C 3,1 C -0,3 C 90 % 1014,2 hPa 0,2 l/m 0,00 h 0,27 h 0 W/m 20,8 km/h (4 Bft) 98,22 %
24.02.2022 22:00 2,4 C 1,7 C -1,1 C 93 % 1015,4 hPa 0,0 l/m 0,00 h 0,13 h 0 W/m 12,9 km/h (3 Bft) 96,20 %
24.02.2022 23:00 2,2 C 1,7 C -1,1 C 94 % 1016,2 hPa 0,0 l/m 0,00 h 0,00 h 0 W/m 11,9 km/h (2 Bft) 98,50 %
25.02.2022 00:00 2,2 C 1,7 C -1,1 C 93 % 1017,1 hPa 0,0 l/m 0,00 h 0,00 h 0 W/m 17,4 km/h (3 Bft) 94,40 %
25.02.2022 01:00 2,3 C 1,7 C -1,1 C 91 % 1017,6 hPa 0,0 l/m 0,00 h 0,00 h 0 W/m 14,2 km/h (3 Bft) 97,84 %
25.02.2022 02:00 2,3 C 1,6 C -1,1 C 90 % 1018,3 hPa 0,0 l/m 0,00 h 0,00 h 0 W/m 14,8 km/h (3 Bft) 95,15 %
25.02.2022 03:00 2,3 C 1,7 C -0,9 C 88 % 1018,4 hPa 0,0 l/m 0,00 h 0,00 h 0 W/m 16,6 km/h (3 Bft) 96,74 %
25.02.2022 04:00 2,4 C 1,7 C -1,1 C 87 % 1018,5 hPa 0,0 l/m 0,00 h 0,00 h 0 W/m 16,1 km/h (3 Bft) 98,43 %
25.02.2022 05:00 2,3 C 1,7 C -1,1 C 86 % 1018,7 hPa 0,0 l/m 0,00 h 0,00 h 0 W/m 18,0 km/h (3 Bft) 96,63 %
25.02.2022 06:00 2,3 C 1,7 C -1,0 C 86 % 1018,8 hPa 0,0 l/m 0,00 h 0,00 h 0 W/m 20,3 km/h (4 Bft) 98,27 %
25.02.2022 07:00 2,7 C 2,1 C -0,6 C 85 % 1019,1 hPa 0,0 l/m 0,00 h 0,00 h 11 W/m 21,7 km/h (4 Bft) 95,98 %
25.02.2022 08:00 3,1 C 2,7 C -0,4 C 86 % 1019,4 hPa 0,2 l/m 0,20 h 0,42 h 42 W/m 21,3 km/h (4 Bft) 98,34 %
25.02.2022 09:00 3,6 C 3,2 C -0,1 C 89 % 1020,1 hPa 0,0 l/m 0,00 h 0,40 h 55 W/m 23,0 km/h (4 Bft) 96,41 %
25.02.2022 10:00 4,3 C 4,3 C 1,1 C 89 % 1020,8 hPa 0,0 l/m 0,07 h 0,00 h 115 W/m 20,8 km/h (4 Bft) 99,21 %
25.02.2022 11:00 5,8 C 7,0 C 3,4 C 86 % 1021,6 hPa 0,0 l/m 0,53 h 0,00 h 245 W/m 18,1 km/h (3 Bft) 96,95 %
25.02.2022 12:00 6,8 C 7,4 C 3,9 C 82 % 1021,9 hPa 0,2 l/m 0,33 h 0,07 h 207 W/m 20,4 km/h (4 Bft) 97,94 %
25.02.2022 13:00 5,8 C 5,7 C 1,6 C 87 % 1022,4 hPa 1,0 l/m 0,13 h 0,53 h 111 W/m 14,9 km/h (3 Bft) 97,79 %
25.02.2022 14:00 5,8 C 5,9 C 1,7 C 89 % 1023,2 hPa 0,8 l/m 0,13 h 0,57 h 93 W/m 17,2 km/h (3 Bft) 97,80 %
25.02.2022 15:00 5,6 C 7,8 C 1,5 C 89 % 1023,8 hPa 0,2 l/m 0,73 h 0,03 h 266 W/m 17,0 km/h (3 Bft) 95,66 %
25.02.2022 16:00 6,4 C 6,5 C 2,7 C 84 % 1024,5 hPa 0,0 l/m 1,00 h 0,03 h 210 W/m 18,3 km/h (3 Bft) 98,90 %
25.02.2022 17:00 5,5 C 4,6 C 1,3 C 88 % 1025,7 hPa 0,6 l/m 0,03 h 0,33 h 18 W/m 19,2 km/h (3 Bft) 96,72 %
25.02.2022 18:00 4,1 C 3,3 C 0,1 C 92 % 1026,8 hPa 0,0 l/m 0,00 h 0,00 h 5 W/m 6,8 km/h (2 Bft) 97,76 %
25.02.2022 19:00 3,7 C 3,1 C 0,4 C 92 % 1027,9 hPa 0,0 l/m 0,00 h 0,00 h 0 W/m 8,2 km/h (2 Bft) 98,39 %
25.02.2022 20:00 3,3 C 2,6 C 0,0 C 92 % 1029,3 hPa 0,0 l/m 0,00 h 0,00 h 0 W/m 6,7 km/h (2 Bft) 97,25 %
25.02.2022 21:00 2,9 C 1,8 C -0,7 C 93 % 1030,1 hPa 0,0 l/m 0,00 h 0,00 h 0 W/m 3,8 km/h (1 Bft) 95,39 %
25.02.2022 22:00 2,1 C 0,9 C -1,6 C 93 % 1030,8 hPa 0,0 l/m 0,00 h 0,00 h 0 W/m 2,5 km/h (1 Bft) 97,72 %
25.02.2022 23:00 1,5 C -0,0 C -2,3 C 94 % 1031,4 hPa 0,0 l/m 0,00 h 0,00 h 0 W/m 0,1 km/h (0 Bft) 97,80 %
26.02.2022 00:00 1,0 C -0,3 C -2,4 C 94 % 1031,9 hPa 0,0 l/m 0,00 h 0,00 h 0 W/m 1,0 km/h (0 Bft) 95,42 %
26.02.2022 01:00 1,1 C 0,2 C -1,9 C 95 % 1032,7 hPa 0,0 l/m 0,00 h 0,00 h 0 W/m 2,7 km/h (1 Bft) 99,00 %
26.02.2022 02:00 0,9 C -0,1 C -2,1 C 96 % 1033,2 hPa 0,0 l/m 0,00 h 0,00 h 0 W/m 0,7 km/h (0 Bft) 96,86 %
26.02.2022 03:00 1,2 C 0,6 C -1,3 C 97 % 1033,5 hPa 0,0 l/m 0,00 h 0,00 h 0 W/m 3,5 km/h (1 Bft) 97,79 %
26.02.2022 04:00 0,9 C 0,0 C -2,0 C 97 % 1033,6 hPa 0,0 l/m 0,00 h 0,00 h 0 W/m 2,0 km/h (1 Bft) 96,44 %
26.02.2022 05:00 0,3 C -1,2 C -2,7 C 97 % 1033,9 hPa 0,0 l/m 0,00 h 0,00 h 0 W/m 0,1 km/h (0 Bft) 98,52 %
26.02.2022 06:00 -0,5 C -1,7 C -3,3 C 96 % 1034,3 hPa 0,0 l/m 0,00 h 0,00 h 0 W/m 0,3 km/h (0 Bft) 97,05 %
26.02.2022 07:00 -1,0 C -2,1 C -3,4 C 97 % 1035,0 hPa 0,0 l/m 0,00 h 0,00 h 12 W/m 0,1 km/h (0 Bft) 97,10 %
26.02.2022 08:00 -0,7 C -1,0 C -2,4 C 97 % 1035,7 hPa 0,0 l/m 0,00 h 0,00 h 39 W/m 2,9 km/h (1 Bft) 96,58 %
26.02.2022 09:00 0,6 C 0,7 C -1,0 C 97 % 1036,3 hPa 0,2 l/m 0,00 h 0,00 h 79 W/m 3,2 km/h (1 Bft) 97,54 %
26.02.2022 10:00 2,0 C 2,1 C 0,3 C 98 % 1036,7 hPa 0,0 l/m 0,00 h 0,00 h 116 W/m 5,9 km/h (2 Bft) 97,80 %
26.02.2022 11:00 2,6 C 3,0 C 1,1 C 98 % 1036,9 hPa 0,0 l/m 0,03 h 0,00 h 143 W/m 11,0 km/h (2 Bft) 96,59 %
26.02.2022 12:00 4,0 C 7,3 C 3,6 C 99 % 1036,5 hPa 0,0 l/m 0,77 h 0,00 h 338 W/m 12,4 km/h (3 Bft) 98,20 %
26.02.2022 13:00 5,7 C 12,4 C 4,2 C 95 % 1036,0 hPa 0,0 l/m 0,63 h 0,00 h 397 W/m 11,6 km/h (2 Bft) 97,22 %
26.02.2022 14:00 6,9 C 11,3 C 3,8 C 77 % 1035,3 hPa 0,0 l/m 0,57 h 0,00 h 335 W/m 10,0 km/h (2 Bft) 96,91 %
26.02.2022 15:00 8,3 C 12,7 C 4,1 C 68 % 1034,6 hPa 0,0 l/m 1,00 h 0,00 h 367 W/m 11,6 km/h (2 Bft) 98,41 %
26.02.2022 16:00 7,8 C 7,6 C 3,2 C 67 % 1033,9 hPa 0,0 l/m 0,63 h 0,00 h 159 W/m 9,3 km/h (2 Bft) 99,11 %
26.02.2022 17:00 6,8 C 5,8 C 2,3 C 71 % 1033,6 hPa 0,0 l/m 0,00 h 0,00 h 24 W/m 4,8 km/h (1 Bft) 95,18 %
26.02.2022 18:00 5,4 C 2,8 C -0,4 C 75 % 1033,9 hPa 0,0 l/m 0,00 h 0,00 h 6 W/m 0,1 km/h (0 Bft) 98,70 %
26.02.2022 19:00 3,7 C 1,7 C -1,9 C 83 % 1034,0 hPa 0,0 l/m 0,00 h 0,00 h 0 W/m 0,0 km/h (0 Bft) 98,32 %
26.02.2022 20:00 2,4 C 0,7 C -2,4 C 86 % 1034,0 hPa 0,0 l/m 0,00 h 0,00 h 0 W/m 0,0 km/h (0 Bft) 98,25 %
26.02.2022 21:00 1,5 C -0,1 C -2,9 C 88 % 1033,8 hPa 0,0 l/m 0,00 h 0,00 h 0 W/m 0,2 km/h (0 Bft) 95,44 %
26.02.2022 22:00 0,8 C -0,2 C -2,9 C 90 % 1033,9 hPa 0,0 l/m 0,00 h 0,00 h 0 W/m 2,2 km/h (1 Bft) 95,74 %
26.02.2022 23:00 0,9 C -0,1 C -2,5 C 91 % 1033,7 hPa 0,0 l/m 0,00 h 0,00 h 0 W/m 4,2 km/h (1 Bft) 98,77 %
27.02.2022 00:00 0,6 C -0,9 C -3,1 C 90 % 1033,4 hPa 0,0 l/m 0,00 h 0,00 h 0 W/m 1,9 km/h (1 Bft) 97,02 %
27.02.2022 01:00 -0,2 C -1,9 C -3,9 C 90 % 1033,2 hPa 0,0 l/m 0,00 h 0,00 h 0 W/m 1,1 km/h (0 Bft) 97,25 %
27.02.2022 02:00 -0,9 C -2,0 C -4,1 C 91 % 1033,1 hPa 0,0 l/m 0,00 h 0,00 h 0 W/m 1,3 km/h (1 Bft) 98,02 %
27.02.2022 03:00 -1,2 C -2,3 C -4,4 C 91 % 1032,9 hPa 0,0 l/m 0,00 h 0,00 h 0 W/m 0,7 km/h (0 Bft) 98,59 %
27.02.2022 04:00 -1,6 C -2,8 C -4,4 C 92 % 1032,5 hPa 0,0 l/m 0,00 h 0,00 h 0 W/m 0,0 km/h (0 Bft) 97,39 %
27.02.2022 05:00 -1,7 C -2,6 C -4,4 C 93 % 1032,5 hPa 0,0 l/m 0,00 h 0,00 h 0 W/m 1,4 km/h (1 Bft) 96,81 %
27.02.2022 06:00 -1,6 C -2,8 C -4,5 C 94 % 1032,4 hPa 0,0 l/m 0,00 h 0,00 h 0 W/m 0,1 km/h (0 Bft) 95,03 %
27.02.2022 07:00 -1,6 C -2,5 C -4,4 C 94 % 1032,5 hPa 0,0 l/m 0,00 h 0,00 h 10 W/m 2,3 km/h (1 Bft) 96,04 %
27.02.2022 08:00 -0,9 C -1,3 C -3,6 C 95 % 1032,8 hPa 0,0 l/m 0,20 h 0,00 h 51 W/m 0,0 km/h (0 Bft) 95,30 %
27.02.2022 09:00 2,4 C 5,1 C -0,3 C 89 % 1032,9 hPa 0,0 l/m 0,57 h 0,00 h 155 W/m 14,1 km/h (3 Bft) 97,08 %
27.02.2022 10:00 5,8 C 11,1 C 2,7 C 73 % 1032,9 hPa 0,0 l/m 0,93 h 0,00 h 304 W/m 18,0 km/h (3 Bft) 97,22 %
27.02.2022 11:00 8,0 C 14,3 C 8,7 C 63 % 1032,7 hPa 0,0 l/m 1,00 h 0,00 h 489 W/m 22,5 km/h (4 Bft) 98,41 %
27.02.2022 12:00 8,7 C 11,1 C 6,1 C 58 % 1032,2 hPa 0,0 l/m 0,60 h 0,00 h 330 W/m 31,4 km/h (5 Bft) 98,35 %
27.02.2022 13:00 9,7 C 16,3 C 5,6 C 54 % 1031,9 hPa 0,0 l/m 1,00 h 0,00 h 572 W/m 27,6 km/h (4 Bft) 97,26 %
27.02.2022 14:00 9,9 C 14,3 C 5,5 C 56 % 1031,5 hPa 0,0 l/m 1,00 h 0,00 h 505 W/m 27,7 km/h (4 Bft) 96,94 %
27.02.2022 15:00 9,9 C 13,3 C 5,3 C 56 % 1030,9 hPa 0,0 l/m 1,00 h 0,00 h 394 W/m 25,8 km/h (4 Bft) 97,85 %
27.02.2022 16:00 9,7 C 9,4 C 4,7 C 54 % 1030,6 hPa 0,0 l/m 0,67 h 0,00 h 174 W/m 25,2 km/h (4 Bft) 97,15 %
27.02.2022 17:00 8,6 C 7,7 C 3,7 C 58 % 1030,5 hPa 0,0 l/m 0,00 h 0,00 h 21 W/m 20,5 km/h (4 Bft) 99,08 %
27.02.2022 18:00 7,4 C 6,4 C 2,5 C 62 % 1030,7 hPa 0,0 l/m 0,00 h 0,00 h 7 W/m 20,0 km/h (4 Bft) 96,76 %
27.02.2022 19:00 6,6 C 5,6 C 2,0 C 64 % 1031,0 hPa 0,0 l/m 0,00 h 0,00 h 0 W/m 18,7 km/h (3 Bft) 96,12 %
27.02.2022 20:00 5,8 C 5,0 C 1,1 C 67 % 1030,9 hPa 0,0 l/m 0,00 h 0,00 h 0 W/m 20,3 km/h (4 Bft) 97,81 %
27.02.2022 21:00 5,6 C 4,9 C 1,1 C 67 % 1030,7 hPa 0,0 l/m 0,00 h 0,00 h 0 W/m 26,1 km/h (4 Bft) 97,64 %
27.02.2022 22:00 5,1 C 4,3 C 0,5 C 68 % 1030,8 hPa 0,0 l/m 0,00 h 0,00 h 0 W/m 22,8 km/h (4 Bft) 96,10 %
27.02.2022 23:00 4,6 C 3,9 C 0,0 C 70 % 1030,8 hPa 0,0 l/m 0,00 h 0,00 h 0 W/m 23,5 km/h (4 Bft) 96,15 %
Min-Datum _ 27.02.22 27.02.22 27.02.22 27.02.22 21.02.22 - - - - 22.02.22 27.02.22
_ Min-Zeit 04:53 06:44 04:54 13:28 00:02 - - - - 07:58 06:56
Minimum _ -1,9 C -3,3 C -5,0 C 52 % 996,4 hPa - - - - 0,0 km/h (0 Bft) 41,18 %
Max-Datum _ 23.02.22 23.02.22 23.02.22 26.02.22 26.02.22 22.02.22 24.02.22 22.02.22 24.02.22 21.02.22 21.02.22
_ Max-Zeit 13:42 13:38 11:28 12:10 11:14 19:48 12:08 14:07 12:58 11:02 00:00
Maximum _ 12,4 C 22,2 C 14,4 C 99 % 1037,0 hPa 2,0 l/m 0,07 h 0,08 h 671 W/m 74,0 km/h
S (8 Bft)
100,00 %
Durchschnitt _ 5,3 C 5,3 C 1,9 C 85 % 1020,8 hPa #15,2 l/m #24:12 h #18:03 h 151 W/m 15,9 km/h (3 Bft) 97,31 %
© 2022 W. Hausmann